createdAt,value
2019-03-29T00:01:37.854Z,103585.20
2019-03-29T00:04:10.952Z,103580.42
2019-03-29T00:06:43.021Z,103575.09
2019-03-29T00:09:15.333Z,103567.80
2019-03-29T00:11:50.515Z,103569.55
2019-03-29T00:14:26.989Z,103571.31
2019-03-29T00:17:00.701Z,103575.08
2019-03-29T00:19:32.775Z,103577.66
2019-03-29T00:22:05.110Z,103573.31
2019-03-29T00:24:37.431Z,103569.50
2019-03-29T00:27:09.497Z,103564.77
2019-03-29T00:29:42.380Z,103559.63
2019-03-29T00:32:14.835Z,103565.21
2019-03-29T00:34:47.839Z,103564.25
2019-03-29T00:37:20.118Z,103565.18
2019-03-29T00:39:54.542Z,103569.37
2019-03-29T00:42:26.661Z,103564.56
2019-03-29T00:44:58.778Z,103558.98
2019-03-29T00:47:30.836Z,103561.48
2019-03-29T00:50:03.002Z,103559.92
2019-03-29T00:52:35.067Z,103562.25
2019-03-29T00:55:07.879Z,103558.20
2019-03-29T00:57:39.946Z,103549.71
2019-03-29T01:00:12.363Z,103547.93
2019-03-29T01:02:44.922Z,103548.09
2019-03-29T01:05:17.947Z,103550.22
2019-03-29T01:08:07.190Z,103542.08
2019-03-29T01:10:30.884Z,103542.41
2019-03-29T01:13:03.795Z,103536.66
2019-03-29T01:15:36.191Z,103538.66
2019-03-29T01:18:08.538Z,103544.98
2019-03-29T01:20:40.618Z,103542.63
2019-03-29T01:23:12.643Z,103543.97
2019-03-29T01:25:44.757Z,103546.28
2019-03-29T01:28:16.929Z,103540.88
2019-03-29T01:30:49.153Z,103536.01
2019-03-29T01:33:22.344Z,103538.08
2019-03-29T01:35:54.498Z,103531.70
2019-03-29T01:38:28.452Z,103532.28
2019-03-29T01:41:01.125Z,103528.80
2019-03-29T01:43:33.301Z,103534.68
2019-03-29T01:46:05.397Z,103533.31
2019-03-29T01:48:37.409Z,103529.98
2019-03-29T01:51:09.940Z,103519.03
2019-03-29T01:53:42.027Z,103526.25
2019-03-29T01:56:15.399Z,103522.48
2019-03-29T01:58:47.392Z,103522.00
2019-03-29T02:01:19.663Z,103515.04
2019-03-29T02:03:52.000Z,103516.89
2019-03-29T02:06:24.022Z,103519.80
2019-03-29T02:08:56.378Z,103518.97
2019-03-29T02:11:29.380Z,103520.52
2019-03-29T02:14:01.372Z,103522.05
2019-03-29T02:16:33.385Z,103521.18
2019-03-29T02:19:06.014Z,103519.29
2019-03-29T02:21:38.225Z,103514.52
2019-03-29T02:24:10.192Z,103512.78
2019-03-29T02:26:42.474Z,103514.52
2019-03-29T02:29:14.537Z,103514.95
2019-03-29T02:31:46.506Z,103508.51
2019-03-29T02:34:18.994Z,103510.45
2019-03-29T02:36:51.264Z,103506.67
2019-03-29T02:39:23.928Z,103499.50
2019-03-29T02:41:57.847Z,103497.77
2019-03-29T02:44:30.606Z,103496.41
2019-03-29T02:47:02.605Z,103497.80
2019-03-29T02:49:34.650Z,103503.23
2019-03-29T02:52:07.524Z,103505.66
2019-03-29T02:54:41.027Z,103503.30
2019-03-29T02:57:13.417Z,103501.32
2019-03-29T02:59:45.453Z,103503.69
2019-03-29T03:02:19.399Z,103508.50
2019-03-29T03:04:51.741Z,103504.34
2019-03-29T03:07:23.727Z,103507.35
2019-03-29T03:09:56.387Z,103511.42
2019-03-29T03:12:52.311Z,103511.49
2019-03-29T03:15:24.682Z,103508.39
2019-03-29T03:17:56.668Z,103510.87
2019-03-29T03:20:28.703Z,103509.97
2019-03-29T03:23:01.074Z,103511.33
2019-03-29T03:25:33.357Z,103507.24
2019-03-29T03:28:06.269Z,103509.86
2019-03-29T03:30:38.506Z,103507.31
2019-03-29T03:33:10.695Z,103516.75
2019-03-29T03:35:43.682Z,103514.93
2019-03-29T03:38:15.784Z,103517.13
2019-03-29T03:40:48.082Z,103520.29
2019-03-29T03:43:20.171Z,103519.20
2019-03-29T03:45:52.696Z,103510.97
2019-03-29T03:48:25.001Z,103517.09
2019-03-29T03:50:57.573Z,103516.44
2019-03-29T03:53:30.643Z,103523.03
2019-03-29T03:56:05.907Z,103516.09
2019-03-29T03:58:41.357Z,103520.97
2019-03-29T04:01:13.796Z,103513.30
2019-03-29T04:03:49.402Z,103508.88
2019-03-29T04:06:21.845Z,103501.59
2019-03-29T04:08:53.837Z,103505.94
2019-03-29T04:11:26.573Z,103508.47
2019-03-29T04:13:59.032Z,103509.94
2019-03-29T04:16:31.271Z,103508.72
2019-03-29T04:19:03.605Z,103506.34
2019-03-29T04:21:35.673Z,103508.13
2019-03-29T04:24:07.748Z,103509.19
2019-03-29T04:26:41.755Z,103503.81
2019-03-29T04:29:16.045Z,103507.76
2019-03-29T04:31:48.220Z,103505.39
2019-03-29T04:34:20.301Z,103504.07
2019-03-29T04:36:52.565Z,103506.48
2019-03-29T04:39:25.129Z,103503.12
2019-03-29T04:41:57.111Z,103503.83
2019-03-29T04:44:29.403Z,103502.56
2019-03-29T04:47:01.965Z,103503.58
2019-03-29T04:49:33.976Z,103503.77
2019-03-29T04:52:06.050Z,103507.84
2019-03-29T04:54:39.378Z,103504.34
2019-03-29T04:57:11.399Z,103502.91
2019-03-29T04:59:43.363Z,103502.13
2019-03-29T05:02:15.674Z,103507.58
2019-03-29T05:04:47.719Z,103501.06
2019-03-29T05:07:20.587Z,103503.97
2019-03-29T05:09:52.880Z,103501.80
2019-03-29T05:12:26.299Z,103496.87
2019-03-29T05:14:59.541Z,103500.98
2019-03-29T05:17:31.707Z,103499.47
2019-03-29T05:20:05.163Z,103502.42
2019-03-29T05:22:37.407Z,103498.05
2019-03-29T05:25:09.453Z,103494.99
2019-03-29T05:27:42.502Z,103486.86
2019-03-29T05:30:16.679Z,103495.47
2019-03-29T05:32:48.749Z,103499.73
2019-03-29T05:35:20.711Z,103499.89
2019-03-29T05:37:52.938Z,103497.53
2019-03-29T05:40:35.106Z,103497.98
2019-03-29T05:43:04.684Z,103489.45
2019-03-29T05:45:36.694Z,103490.91
2019-03-29T05:48:08.869Z,103490.69
2019-03-29T05:50:40.855Z,103493.36
2019-03-29T05:53:12.848Z,103487.20
2019-03-29T05:55:48.174Z,103483.98
2019-03-29T05:58:20.725Z,103483.44
2019-03-29T06:00:53.649Z,103489.12
2019-03-29T06:03:27.380Z,103489.05
2019-03-29T06:05:59.405Z,103489.00
2019-03-29T06:08:31.374Z,103493.12
2019-03-29T06:11:07.023Z,103491.32
2019-03-29T06:13:40.803Z,103491.44
2019-03-29T06:16:13.722Z,103485.98
2019-03-29T06:18:46.510Z,103486.53
2019-03-29T06:21:18.486Z,103486.22
2019-03-29T06:23:50.990Z,103489.21
2019-03-29T06:26:23.163Z,103484.81
2019-03-29T06:28:55.160Z,103482.23
2019-03-29T06:31:27.147Z,103478.69
2019-03-29T06:33:59.765Z,103479.52
2019-03-29T06:36:33.815Z,103472.22
2019-03-29T06:39:07.751Z,103477.91
2019-03-29T06:41:39.715Z,103473.60
2019-03-29T06:44:12.562Z,103478.15
2019-03-29T06:46:45.113Z,103474.97
2019-03-29T06:49:17.127Z,103476.06
2019-03-29T06:51:49.119Z,103484.61
2019-03-29T06:54:21.220Z,103480.67
2019-03-29T06:56:53.484Z,103480.44
2019-03-29T06:59:25.462Z,103479.44
2019-03-29T07:01:57.457Z,103485.95
2019-03-29T07:04:30.828Z,103480.98
2019-03-29T07:07:02.822Z,103477.00
2019-03-29T07:09:36.385Z,103479.23
2019-03-29T07:12:08.421Z,103474.72
2019-03-29T07:14:40.749Z,103482.12
2019-03-29T07:17:12.754Z,103482.96
2019-03-29T07:19:45.050Z,103489.84
2019-03-29T07:22:17.013Z,103484.05
2019-03-29T07:24:49.808Z,103489.28
2019-03-29T07:27:22.596Z,103493.00
2019-03-29T07:29:54.583Z,103493.83
2019-03-29T07:32:26.607Z,103502.30
2019-03-29T07:34:58.647Z,103495.81
2019-03-29T07:37:31.602Z,103501.25
2019-03-29T07:40:04.668Z,103497.87
2019-03-29T07:42:37.487Z,103493.55
2019-03-29T07:45:11.478Z,103496.39
2019-03-29T07:47:43.514Z,103494.67
2019-03-29T07:50:18.920Z,103493.59
2019-03-29T07:52:49.502Z,103491.11
2019-03-29T07:55:21.821Z,103493.09
2019-03-29T07:57:53.800Z,103491.66
2019-03-29T08:00:25.773Z,103491.27
2019-03-29T08:02:57.913Z,103482.22
2019-03-29T08:05:30.664Z,103486.83
2019-03-29T08:08:02.992Z,103484.35
2019-03-29T08:10:35.011Z,103476.80
2019-03-29T08:13:06.992Z,103485.84
2019-03-29T08:15:40.395Z,103474.24
2019-03-29T08:18:12.388Z,103476.23
2019-03-29T08:20:44.848Z,103469.39
2019-03-29T08:23:16.947Z,103470.67
2019-03-29T08:25:48.965Z,103468.30
2019-03-29T08:28:21.308Z,103460.69
2019-03-29T08:30:54.100Z,103470.28
2019-03-29T08:33:26.672Z,103468.82
2019-03-29T08:35:58.713Z,103463.37
2019-03-29T08:38:30.689Z,103463.41
2019-03-29T08:41:02.990Z,103463.92
2019-03-29T08:43:36.542Z,103461.53
2019-03-29T08:46:08.553Z,103462.65
2019-03-29T08:48:41.172Z,103461.77
2019-03-29T08:51:13.245Z,103458.73
2019-03-29T08:53:47.440Z,103459.42
2019-03-29T08:56:19.659Z,103451.55
2019-03-29T08:58:51.639Z,103452.27
2019-03-29T09:01:23.619Z,103450.20
2019-03-29T09:04:05.252Z,103447.38
2019-03-29T09:06:30.399Z,103439.67
2019-03-29T09:09:03.442Z,103432.05
2019-03-29T09:11:38.777Z,103438.82
2019-03-29T09:14:09.086Z,103441.78
2019-03-29T09:16:41.348Z,103439.63
2019-03-29T09:19:13.342Z,103442.66
2019-03-29T09:21:45.600Z,103444.80
2019-03-29T09:24:22.393Z,103440.23
2019-03-29T09:26:51.368Z,103430.85
2019-03-29T09:29:23.689Z,103430.30
2019-03-29T09:31:55.700Z,103423.77
2019-03-29T09:34:28.959Z,103424.06
2019-03-29T09:37:01.029Z,103420.72
2019-03-29T09:39:33.099Z,103415.76
2019-03-29T09:42:09.394Z,103416.98
2019-03-29T09:44:40.099Z,103414.34
2019-03-29T09:47:12.203Z,103409.91
2019-03-29T09:49:45.537Z,103406.16
2019-03-29T09:52:20.701Z,103392.78
2019-03-29T09:54:54.194Z,103391.39
2019-03-29T09:57:37.469Z,103389.36
2019-03-29T10:00:00.153Z,103385.59
2019-03-29T10:02:32.351Z,103383.92
2019-03-29T10:05:04.993Z,103380.58
2019-03-29T10:07:37.284Z,103379.58
2019-03-29T10:10:10.073Z,103380.44
2019-03-29T10:12:43.693Z,103362.59
2019-03-29T10:15:17.131Z,103371.47
2019-03-29T10:17:49.128Z,103371.94
2019-03-29T10:20:21.157Z,103368.30
2019-03-29T10:22:53.149Z,103374.77
2019-03-29T10:25:25.264Z,103367.89
2019-03-29T10:27:58.179Z,103368.91
2019-03-29T10:30:46.441Z,103361.95
2019-03-29T10:33:18.362Z,103365.06
2019-03-29T10:35:52.739Z,103359.98
2019-03-29T10:38:24.437Z,103355.63
2019-03-29T10:40:56.665Z,103353.67
2019-03-29T10:43:30.211Z,103351.56
2019-03-29T10:46:02.596Z,103345.52
2019-03-29T10:48:35.227Z,103345.48
2019-03-29T10:51:08.627Z,103344.13
2019-03-29T10:53:40.770Z,103331.84
2019-03-29T10:56:13.897Z,103336.59
2019-03-29T10:58:47.734Z,103332.03
2019-03-29T11:01:24.663Z,103330.19
2019-03-29T11:03:57.867Z,103325.13
2019-03-29T11:06:30.725Z,103327.81
2019-03-29T11:09:04.965Z,103317.02
2019-03-29T11:11:37.259Z,103315.22
2019-03-29T11:14:09.267Z,103313.69
2019-03-29T11:16:42.224Z,103312.88
2019-03-29T11:19:18.117Z,103317.98
2019-03-29T11:21:50.112Z,103307.11
2019-03-29T11:24:22.475Z,103307.56
2019-03-29T11:26:55.104Z,103299.29
2019-03-29T11:29:31.050Z,103295.36
2019-03-29T11:32:03.705Z,103301.74
2019-03-29T11:34:35.721Z,103293.86
2019-03-29T11:37:08.294Z,103293.63
2019-03-29T11:39:40.854Z,103292.77
2019-03-29T11:42:13.020Z,103286.79
2019-03-29T11:44:46.281Z,103282.77
2019-03-29T11:47:18.705Z,103278.64
2019-03-29T11:49:53.690Z,103277.06
2019-03-29T11:52:25.648Z,103278.34
2019-03-29T11:54:58.250Z,103271.98
2019-03-29T11:57:31.294Z,103276.13
2019-03-29T12:00:03.847Z,103257.88
2019-03-29T12:02:38.876Z,103262.55
2019-03-29T12:05:13.864Z,103265.83
2019-03-29T12:07:46.189Z,103257.43
2019-03-29T12:10:18.394Z,103257.34
2019-03-29T12:12:50.460Z,103259.67
2019-03-29T12:15:22.695Z,103255.86
2019-03-29T12:17:55.164Z,103247.91
2019-03-29T12:20:27.641Z,103256.62
2019-03-29T12:23:00.346Z,103245.89
2019-03-29T12:25:32.997Z,103244.44
2019-03-29T12:28:05.141Z,103247.89
2019-03-29T12:30:37.643Z,103250.00
2019-03-29T12:33:09.703Z,103245.06
2019-03-29T12:35:42.050Z,103241.93
2019-03-29T12:38:14.154Z,103241.38
2019-03-29T12:40:46.822Z,103241.54
2019-03-29T12:43:20.811Z,103240.28
2019-03-29T12:45:52.839Z,103236.81
2019-03-29T12:48:30.504Z,103235.48
2019-03-29T12:51:02.637Z,103231.17
2019-03-29T12:53:34.633Z,103222.29
2019-03-29T12:56:07.192Z,103219.20
2019-03-29T12:58:39.609Z,103212.52
2019-03-29T13:01:12.014Z,103210.09
2019-03-29T13:03:44.861Z,103220.95
2019-03-29T13:06:17.200Z,103209.09
2019-03-29T13:08:49.228Z,103210.78
2019-03-29T13:11:21.294Z,103200.11
2019-03-29T13:13:53.323Z,103201.84
2019-03-29T13:16:31.772Z,103186.66
2019-03-29T13:19:04.132Z,103188.67
2019-03-29T13:21:38.790Z,103189.81
2019-03-29T13:24:15.723Z,103185.83
2019-03-29T13:26:43.635Z,103177.18
2019-03-29T13:29:15.943Z,103179.74
2019-03-29T13:31:49.687Z,103177.22
2019-03-29T13:34:21.710Z,103174.19
2019-03-29T13:36:53.849Z,103169.28
2019-03-29T13:39:26.566Z,103164.36
2019-03-29T13:41:59.124Z,103162.44
2019-03-29T13:44:31.139Z,103165.83
2019-03-29T13:47:03.172Z,103159.98
2019-03-29T13:49:35.165Z,103151.99
2019-03-29T13:52:07.220Z,103145.45
2019-03-29T13:54:39.814Z,103144.53
2019-03-29T13:57:12.025Z,103142.09
2019-03-29T13:59:44.149Z,103133.89
2019-03-29T14:02:16.444Z,103125.84
2019-03-29T14:04:50.182Z,103127.78
2019-03-29T14:07:23.551Z,103123.95
2019-03-29T14:09:57.524Z,103113.12
2019-03-29T14:12:29.858Z,103111.13
2019-03-29T14:15:02.129Z,103108.80
2019-03-29T14:17:34.389Z,103105.73
2019-03-29T14:20:08.298Z,103099.50
2019-03-29T14:22:40.881Z,103097.48
2019-03-29T14:25:13.098Z,103097.20
2019-03-29T14:27:45.413Z,103090.01
2019-03-29T14:30:17.494Z,103081.95
2019-03-29T14:32:49.630Z,103074.89
2019-03-29T14:35:21.618Z,103080.50
2019-03-29T14:37:54.518Z,103075.36
2019-03-29T14:40:26.739Z,103070.17
2019-03-29T14:42:58.746Z,103071.27
2019-03-29T14:45:31.624Z,103065.26
2019-03-29T14:48:13.276Z,103062.38
2019-03-29T14:50:45.559Z,103063.20
2019-03-29T14:53:17.924Z,103063.58
2019-03-29T14:55:49.919Z,103058.04
2019-03-29T14:58:22.157Z,103053.66
2019-03-29T15:00:54.435Z,103047.55
2019-03-29T15:03:26.847Z,103046.53
2019-03-29T15:06:01.733Z,103038.84
2019-03-29T15:08:32.939Z,103039.29
2019-03-29T15:11:05.138Z,103042.62
2019-03-29T15:13:37.225Z,103042.36
2019-03-29T15:16:09.348Z,103040.78
2019-03-29T15:18:41.430Z,103037.16
2019-03-29T15:21:13.469Z,103037.75
2019-03-29T15:23:45.702Z,103028.93
2019-03-29T15:26:17.774Z,103023.05
2019-03-29T15:28:50.304Z,103023.00
2019-03-29T15:31:22.385Z,103023.33
2019-03-29T15:33:56.027Z,103008.76
2019-03-29T15:36:28.033Z,103015.45
2019-03-29T15:39:00.144Z,103012.72
2019-03-29T15:41:32.448Z,103015.16
2019-03-29T15:44:05.329Z,103013.88
2019-03-29T15:46:37.452Z,103012.02
2019-03-29T15:49:09.492Z,103005.98
2019-03-29T15:51:41.658Z,103001.11
2019-03-29T15:54:13.664Z,103002.52
2019-03-29T15:56:46.094Z,103005.19
2019-03-29T15:59:18.082Z,103001.34
2019-03-29T16:01:50.129Z,103000.45
2019-03-29T16:04:22.255Z,102998.10
2019-03-29T16:06:54.574Z,102992.97
2019-03-29T16:09:26.718Z,102985.97
2019-03-29T16:11:59.015Z,102986.86
2019-03-29T16:14:31.057Z,102982.78
2019-03-29T16:17:03.132Z,102988.25
2019-03-29T16:19:35.182Z,102982.91
2019-03-29T16:22:07.287Z,102985.14
2019-03-29T16:24:39.742Z,102978.68
2019-03-29T16:27:12.000Z,102983.17
2019-03-29T16:29:44.895Z,102971.95
2019-03-29T16:32:19.428Z,102972.85
2019-03-29T16:34:51.924Z,102975.73
2019-03-29T16:37:25.528Z,102977.92
2019-03-29T16:39:57.503Z,102975.72
2019-03-29T16:42:30.427Z,102977.02
2019-03-29T16:45:03.751Z,102969.64
2019-03-29T16:47:36.539Z,102972.05
2019-03-29T16:50:09.771Z,102966.22
2019-03-29T16:52:41.766Z,102958.83
2019-03-29T16:55:14.791Z,102959.80
2019-03-29T16:57:47.095Z,102956.22
2019-03-29T17:00:22.124Z,102957.31
2019-03-29T17:02:55.960Z,102957.39
2019-03-29T17:05:28.849Z,102954.56
2019-03-29T17:08:00.920Z,102959.53
2019-03-29T17:10:35.001Z,102956.95
2019-03-29T17:13:06.990Z,102957.03
2019-03-29T17:15:39.103Z,102954.16
2019-03-29T17:18:11.444Z,102952.82
2019-03-29T17:20:43.463Z,102952.17
2019-03-29T17:23:15.852Z,102951.73
2019-03-29T17:25:47.900Z,102955.31
2019-03-29T17:28:19.990Z,102953.23
2019-03-29T17:30:56.781Z,102952.16
2019-03-29T17:33:28.767Z,102953.69
2019-03-29T17:36:01.006Z,102951.73
2019-03-29T17:38:33.009Z,102948.50
2019-03-29T17:41:44.633Z,102945.53
2019-03-29T17:44:05.058Z,102947.27
2019-03-29T17:46:37.538Z,102941.27
2019-03-29T17:49:12.469Z,102939.87
2019-03-29T17:51:46.044Z,102938.92
2019-03-29T17:54:18.300Z,102945.01
2019-03-29T17:56:50.596Z,102942.22
2019-03-29T17:59:22.655Z,102925.78
2019-03-29T18:02:08.571Z,102939.48
2019-03-29T18:04:28.936Z,102937.91
2019-03-29T18:07:01.159Z,102941.59
2019-03-29T18:09:34.056Z,102946.16
2019-03-29T18:12:06.154Z,102942.20
2019-03-29T18:14:39.419Z,102942.44
2019-03-29T18:17:15.122Z,102949.03
2019-03-29T18:19:47.911Z,102947.89
2019-03-29T18:22:20.844Z,102946.13
2019-03-29T18:24:53.041Z,102948.78
2019-03-29T18:27:25.107Z,102942.44
2019-03-29T18:29:57.348Z,102946.11
2019-03-29T18:32:30.179Z,102939.64
2019-03-29T18:35:02.334Z,102934.55
2019-03-29T18:37:34.834Z,102932.93
2019-03-29T18:40:09.152Z,102927.63
2019-03-29T18:42:41.270Z,102930.17
2019-03-29T18:45:13.644Z,102934.11
2019-03-29T18:47:45.660Z,102932.64
2019-03-29T18:50:17.989Z,102934.63
2019-03-29T18:52:50.327Z,102935.40
2019-03-29T18:55:22.327Z,102934.28
2019-03-29T18:57:54.747Z,102931.94
2019-03-29T19:00:32.594Z,102927.13
2019-03-29T19:03:04.976Z,102930.27
2019-03-29T19:05:37.037Z,102932.28
2019-03-29T19:08:09.151Z,102931.65
2019-03-29T19:10:41.564Z,102933.77
2019-03-29T19:13:13.652Z,102935.05
2019-03-29T19:15:45.674Z,102942.78
2019-03-29T19:18:18.046Z,102938.03
2019-03-29T19:20:50.041Z,102943.86
2019-03-29T19:23:22.113Z,102950.86
2019-03-29T19:25:54.190Z,102947.77
2019-03-29T19:28:26.463Z,102946.54
2019-03-29T19:30:58.466Z,102947.83
2019-03-29T19:33:30.483Z,102943.34
2019-03-29T19:36:02.484Z,102941.52
2019-03-29T19:38:34.615Z,102942.66
2019-03-29T19:41:06.934Z,102944.75
2019-03-29T19:43:38.899Z,102944.33
2019-03-29T19:46:10.893Z,102944.63
2019-03-29T19:48:43.050Z,102940.38
2019-03-29T19:51:15.105Z,102944.45
2019-03-29T19:53:47.139Z,102943.53
2019-03-29T19:56:19.168Z,102938.46
2019-03-29T19:58:51.297Z,102941.66
2019-03-29T20:01:23.912Z,102943.95
2019-03-29T20:03:55.940Z,102938.42
2019-03-29T20:06:28.019Z,102937.25
2019-03-29T20:09:01.243Z,102938.93
2019-03-29T20:11:34.256Z,102934.09
2019-03-29T20:14:06.571Z,102939.90
2019-03-29T20:16:38.606Z,102936.59
2019-03-29T20:19:10.671Z,102931.81
2019-03-29T20:21:42.661Z,102928.27
2019-03-29T20:24:14.636Z,102924.45
2019-03-29T20:26:46.668Z,102924.87
2019-03-29T20:29:19.355Z,102928.81
2019-03-29T20:31:52.179Z,102925.84
2019-03-29T20:34:24.207Z,102929.57
2019-03-29T20:36:56.695Z,102922.83
2019-03-29T20:39:31.226Z,102922.20
2019-03-29T20:42:06.368Z,102923.82
2019-03-29T20:44:41.085Z,102920.73
2019-03-29T20:47:13.068Z,102916.81
2019-03-29T20:49:45.079Z,102923.77
2019-03-29T20:52:17.407Z,102925.27
2019-03-29T20:54:49.472Z,102920.95
2019-03-29T20:57:25.373Z,102917.55
2019-03-29T20:59:58.115Z,102919.84
2019-03-29T21:02:31.152Z,102914.34
2019-03-29T21:05:03.480Z,102916.86
2019-03-29T21:07:35.557Z,102914.55
2019-03-29T21:10:09.546Z,102917.72
2019-03-29T21:12:41.606Z,102923.75
2019-03-29T21:15:15.641Z,102917.80
2019-03-29T21:17:56.441Z,102919.00
2019-03-29T21:20:21.776Z,102921.79
2019-03-29T21:22:53.809Z,102919.14
2019-03-29T21:25:28.282Z,102918.97
2019-03-29T21:28:00.877Z,102917.08
2019-03-29T21:30:33.104Z,102920.61
2019-03-29T21:33:07.011Z,102921.76
2019-03-29T21:35:38.989Z,102914.68
2019-03-29T21:38:11.072Z,102913.70
2019-03-29T21:40:45.033Z,102912.52
2019-03-29T21:43:17.410Z,102911.96
2019-03-29T21:45:49.435Z,102901.94
2019-03-29T21:48:29.334Z,102910.48
2019-03-29T21:50:55.716Z,102914.97
2019-03-29T21:53:27.711Z,102908.29
2019-03-29T21:55:59.803Z,102904.09
2019-03-29T21:58:31.886Z,102906.09
2019-03-29T22:01:03.929Z,102905.03
2019-03-29T22:03:36.033Z,102903.86
2019-03-29T22:06:08.076Z,102898.84
2019-03-29T22:08:40.201Z,102897.08
2019-03-29T22:11:12.192Z,102900.41
2019-03-29T22:13:44.455Z,102900.21
2019-03-29T22:16:16.581Z,102894.84
2019-03-29T22:18:51.503Z,102891.41
2019-03-29T22:21:46.711Z,102885.77
2019-03-29T22:24:18.902Z,102887.67
2019-03-29T22:26:52.425Z,102877.72
2019-03-29T22:29:24.505Z,102879.45
2019-03-29T22:31:56.627Z,102879.78
2019-03-29T22:34:28.659Z,102870.48
2019-03-29T22:37:01.184Z,102873.27
2019-03-29T22:39:37.386Z,102867.67
2019-03-29T22:42:09.647Z,102862.79
2019-03-29T22:44:41.667Z,102858.41
2019-03-29T22:47:15.081Z,102853.13
2019-03-29T22:49:47.198Z,102850.31
2019-03-29T22:52:19.251Z,102848.94
2019-03-29T22:54:51.318Z,102846.36
2019-03-29T22:57:23.498Z,102845.47
2019-03-29T22:59:55.759Z,102845.01
2019-03-29T23:02:28.741Z,102843.11
2019-03-29T23:05:00.821Z,102837.94
2019-03-29T23:07:33.089Z,102837.34
2019-03-29T23:10:07.629Z,102842.19
2019-03-29T23:12:40.348Z,102840.69
2019-03-29T23:15:12.648Z,102836.36
2019-03-29T23:17:44.807Z,102837.02
2019-03-29T23:20:16.989Z,102832.49
2019-03-29T23:22:49.963Z,102835.38
2019-03-29T23:25:24.924Z,102829.25
2019-03-29T23:27:57.053Z,102824.56
2019-03-29T23:30:30.805Z,102827.61
2019-03-29T23:33:02.840Z,102821.32
2019-03-29T23:35:35.343Z,102824.92
2019-03-29T23:38:07.411Z,102820.63
2019-03-29T23:40:39.400Z,102817.33
2019-03-29T23:43:11.587Z,102818.02
2019-03-29T23:45:43.607Z,102811.27
2019-03-29T23:48:15.724Z,102813.91
2019-03-29T23:50:48.069Z,102812.45
2019-03-29T23:53:20.089Z,102814.41
2019-03-29T23:55:52.120Z,102810.97
2019-03-29T23:58:24.205Z,102809.37
